Jermyn, Pennsylvania
Current Conditions -  °F | °C
As of 5:29 PM on Monday 22 Dec 2014 (Local Time) from KAVP Reporting Station
Overcast Overcast  
Wind Chill: 35°   Ceiling: 1300
Heat Index: 39°   Visibility: 10mi
Dew Point: 32°   Wind: 6mph
Humidity: 76%   Direction: NA
Pressure: 30.17"   Gusts: NA
Location:  41.53°N, 75.55°W
Report Text: KAVP 222229Z AUTO VRB05KT 10SM OVC013 04/00 A3017 RMK AO2 T00390000
Loading
Personal Weather Stations






























Interactive Weather Map New forecast layout! Learn more

10-Day Weather Forecast

Advertisements
Track Severe Weather on mobile